Flight Track Log - Related Links

Times and Time Zones

All times are in EDT time to prevent confusion due to time zone crossing. See the CSN450 flight status page for this flight to view local times or setup timezone preferences in your user account.

Time Position Orientation Groundspeed Altitude Reporting Facility
EDT Latitude Longitude Course Direction KTS MPH feet Rate Location/Type
Sat 10:02:53 PM 49.1920 -123.1880 143° Southeast 17 20  Level FlightAware ADS-B
Sat 10:03:17 PM 49.1910 -123.1860 127° Southeast 19 22 53 Level FlightAware ADS-B
Sat 10:04:08 PM 49.1890 -123.1820 127° Southeast 12 14 57 Level FlightAware ADS-B
Sat 10:04:22 PM 49.1890 -123.1810 90° East 12 14 68 Level FlightAware ADS-B
Sat 10:04:52 PM 49.1890 -123.1780 90° East 18 21 72 Level FlightAware ADS-B
Sat 10:05:13 PM 49.1880 -123.1750 117° Southeast 22 25 82 Level FlightAware ADS-B
Sat 10:05:37 PM 49.1880 -123.1720 90° East 23 26 90 Level FlightAware ADS-B
Sat 10:06:07 PM 49.1870 -123.1660 104° East 25 29 103 Level FlightAware ADS-B
Sat 10:06:18 PM 49.1870 -123.1650 90° East 25 29 124 Level FlightAware ADS-B
Sat 10:06:38 PM 49.1870 -123.1630 90° East 13 15 134 Level FlightAware ADS-B
Sat 10:06:47 PM 49.1860 -123.1620 147° Southeast 13 15 158 Level FlightAware ADS-B
Sat 10:07:13 PM 49.1850 -123.1610 147° Southeast 12 14 171 Level FlightAware ADS-B
Sat 10:07:53 PM 49.1850 -123.1650 270° West 60 69 228 Level FlightAware ADS-B
Sat 10:08:22 PM 49.1880 -123.1870 282° West 170 196 462 Level FlightAware ADS-B
Sat 10:08:32 PM 49.1900 -123.2040 280° West 185 213 300 2,488 Climbing FlightAware ADS-B
Sat 10:09:03 PM 49.1950 -123.2420 281° West 181 208 1,700 2,618 Climbing FlightAware ADS-B
Sat 10:09:27 PM 49.1990 -123.2710 282° West 182 209 2,700 2,400 Climbing FlightAware ADS-B
Sat 10:09:43 PM 49.2020 -123.2930 282° West 180 207 3,300 1,565 Climbing FlightAware ADS-B
Sat 10:10:13 PM 49.2070 -123.3330 281° West 211 243 3,900 1,200 Climbing FlightAware ADS-B
Sat 10:10:43 PM 49.2160 -123.3800 286° West 250 288 4,500 2,051 Climbing FlightAware ADS-B
Sat 10:13:00 PM 49.4035 -123.7321 309° West  Level FlightAware Approximate
Sat 10:13:29 PM 49.3190 -123.6350 309° West 305 351 10,600  Level FlightAware ADS-B
Sat 10:14:13 PM 49.3670 -123.7570 301° West 358 412 12,000 2,292 Climbing FlightAware ADS-B
Sat 10:14:58 PM 49.4060 -123.8570 301° West 368 423 14,000 2,612 Climbing FlightAware ADS-B
Sat 10:15:38 PM 49.4410 -123.9470 301° West 379 436 15,700 2,400 Climbing FlightAware ADS-B
Sat 10:16:23 PM 49.4820 -124.0540 301° West 391 450 17,400 2,259 Climbing FlightAware ADS-B
Sat 10:17:03 PM 49.5190 -124.1510 300° West 404 465 18,900 2,320 Climbing FlightAware ADS-B
Sat 10:17:38 PM 49.5520 -124.2360 301° West 411 473 20,300 2,100 Climbing FlightAware ADS-B
Sat 10:18:23 PM 49.5960 -124.3510 301° West 426 490 21,700 1,765 Climbing FlightAware ADS-B
Sat 10:19:03 PM 49.6360 -124.4560 300° West 441 507 22,800 1,800 Climbing FlightAware ADS-B
Sat 10:19:43 PM 49.6790 -124.5690 300° West 453 521 24,100 1,875 Climbing FlightAware ADS-B
Sat 10:20:23 PM 49.7200 -124.6780 300° West 462 532 25,300 1,835 Climbing FlightAware ADS-B
Sat 10:21:08 PM 49.7700 -124.8090 301° West 470 541 26,700 1,667 Climbing FlightAware ADS-B
Sat 10:21:53 PM 49.8200 -124.9410 300° West 483 556 27,800 1,520 Climbing FlightAware ADS-B
Sat 10:22:23 PM 49.8530 -125.0310 300° West 489 563 28,600 1,600 Climbing FlightAware ADS-B
Sat 10:23:08 PM 49.9040 -125.1680 300° West 497 572 29,800 1,765 Climbing FlightAware ADS-B
Sat 10:23:48 PM 49.9480 -125.2870 300° West 498 573 31,100 1,467 Climbing FlightAware ADS-B
Sat 10:24:38 PM 50.0040 -125.4390 300° West 491 565 32,000 600 Climbing FlightAware ADS-B
Sat 10:25:18 PM 50.0470 -125.5570 300° West 492 566 32,000  Level FlightAware ADS-B
Sat 10:26:02 PM 50.1010 -125.7030 300° West 491 565 32,000  Level FlightAware ADS-B
Sat 10:26:43 PM 50.1510 -125.8240 303° West 493 567 32,000  Level FlightAware ADS-B
Sat 10:27:33 PM 50.2150 -125.9660 305° West 492 566 32,000  Level FlightAware ADS-B
Sat 10:28:21 PM 50.2780 -126.1040 306° West 491 565 32,000  Level FlightAware ADS-B
Sat 10:29:05 PM 50.3380 -126.2360 305° West 491 565 32,000  Level FlightAware ADS-B
Sat 10:30:03 PM 50.4130 -126.4010 306° West 492 566 32,000  Level FlightAware ADS-B
Sat 10:30:38 PM 50.4590 -126.5030 305° West 492 566 32,000  Level FlightAware ADS-B
Sat 10:31:38 PM 50.5370 -126.6790 305° West 491 565 32,000  Level FlightAware ADS-B
Sat 10:32:28 PM 50.6020 -126.8240 305° West 490 564 32,000  Level FlightAware ADS-B
Sat 10:33:38 PM 50.6900 -127.0250 305° West 489 563 32,000  Level FlightAware ADS-B
Sat 10:34:18 PM 50.7370 -127.1310 305° West 488 562 32,000  Level FlightAware ADS-B
Sat 10:35:13 PM 50.8120 -127.3030 305° West 488 562 32,000  Level FlightAware ADS-B
Sat 10:35:58 PM 50.8690 -127.4370 304° West 487 560 32,000  Level FlightAware ADS-B
Sat 10:36:40 PM 50.9140 -127.5380 305° West 487 560 32,000  Level FlightAware ADS-B
Sat 10:37:16 PM 50.9530 -127.6270 305° West 487 560 32,000  Level FlightAware ADS-B
Sat 10:38:04 PM 51.0060 -127.7470 305° West 487 560 32,000  Level FlightAware ADS-B
Sat 10:38:40 PM 51.0450 -127.8370 305° West 487 560 32,000  Level FlightAware ADS-B
Sat 10:39:16 PM 51.0850 -127.9270 305° West 487 560 32,000  Level FlightAware ADS-B
Sat 10:40:04 PM 51.1380 -128.0470 305° West 487 560 32,000  Level FlightAware ADS-B
Sat 10:40:40 PM 51.1770 -128.1370 305° West 487 560 32,000  Level FlightAware ADS-B
Sat 10:41:28 PM 51.2300 -128.2570 305° West 487 560 32,000  Level FlightAware ADS-B
Sat 10:42:04 PM 51.2700 -128.3470 305° West 487 560 32,000  Level FlightAware ADS-B
Sat 10:42:52 PM 51.3220 -128.4680 305° West 487 560 32,000  Level FlightAware ADS-B
Sat 10:43:25 PM 51.3580 -128.5500 305° West 487 560 32,000  Level FlightAware ADS-B
Sat 10:44:02 PM 51.3990 -128.6430 305° West 487 560 32,000  Level FlightAware ADS-B
Sat 10:44:50 PM 51.4520 -128.7640 305° West 487 560 32,000  Level FlightAware ADS-B
Sat 10:45:26 PM 51.4910 -128.8550 305° West 487 560 32,000  Level FlightAware ADS-B
Sat 10:46:02 PM 51.5310 -128.9460 305° West 487 560 32,000  Level FlightAware ADS-B
Sat 10:47:09 PM 51.6833 -129.4500 305° West 480 552 32,000  Level Vancouver Center
Sat 10:48:09 PM 51.7500 -129.6333 300° West 480 552 32,000  Level Vancouver Center
Sat 10:49:09 PM 51.8333 -129.8000 309° West 480 552 32,000  Level Vancouver Center
Sat 10:50:09 PM 51.9000 -130.0000 298° West 480 552 32,000  Level Vancouver Center
Sat 10:51:09 PM 51.9667 -130.1667 303° West 480 552 32,000  Level Vancouver Center
Sat 10:52:09 PM 52.0333 -130.3500 301° West 480 552 32,000  Level Vancouver Center
Sat 10:53:09 PM 52.1000 -130.5500 299° West 480 552 32,000  Level Vancouver Center
Sat 10:54:09 PM 52.1833 -130.7167 309° West 480 552 32,000  Level Vancouver Center
Sat 10:55:09 PM 52.2500 -130.9167 299° West 480 552 32,000  Level Vancouver Center
Sat 10:56:09 PM 52.3000 -131.1000 294° West 480 552 32,000  Level Vancouver Center
Sat 10:57:09 PM 52.3833 -131.2667 309° West 470 541 32,000  Level Vancouver Center
Sat 10:58:09 PM 52.4500 -131.4833 297° West 470 541 32,000  Level Vancouver Center
Sat 10:59:09 PM 52.5167 -131.6500 303° West 470 541 32,000 250 Level Vancouver Center
Sat 11:00:09 PM 52.5833 -131.8333 301° West 470 541 32,500 1,000 Climbing Vancouver Center
Sat 11:01:09 PM 52.6500 -132.0167 301° West 470 541 34,000 750 Climbing Vancouver Center
Sat 11:02:09 PM 52.7167 -132.2167 299° West 460 529 34,000  Level Vancouver Center
Sat 11:03:09 PM 52.7667 -132.4000 294° West 460 529 34,000  Level Vancouver Center
Sat 11:04:09 PM 52.8500 -132.5667 310° West 460 529 34,000  Level Vancouver Center
Sat 11:05:09 PM 52.9167 -132.7500 301° West 460 529 34,000  Level Vancouver Center
Sat 11:06:09 PM 52.9667 -132.9333 294° West 460 529 34,000  Level Vancouver Center
Sat 11:07:09 PM 53.0333 -133.1167 301° West 460 529 34,000  Level Vancouver Center
Sat 11:08:09 PM 53.0833 -133.3000 294° West 460 529 34,000  Level Vancouver Center
Sat 11:09:09 PM 53.1667 -133.4833 307° West 460 529 34,000  Level Vancouver Center
Sat 11:10:09 PM 53.2167 -133.6500 297° West 460 529 34,000  Level Vancouver Center
Sat 11:11:09 PM 53.2833 -133.8333 301° West 460 529 34,000  Level Vancouver Center
Sat 11:11:39 PM 53.3167 -133.8833 318° Northwest 460 529 34,000  Level Anchorage Center
Sat 11:12:39 PM 53.3833 -134.0833 299° West 450 518 34,000  Level Anchorage Center
Sat 11:13:09 PM 53.4000 -134.2000 284° West 450 518 34,000  Level Vancouver Center
Sat 11:13:40 PM 53.4500 -134.2667 322° Northwest 450 518 34,000  Level Anchorage Center
Sat 11:14:40 PM 53.5000 -134.4500 295° West 450 518 34,000  Level Anchorage Center
Sat 11:15:40 PM 53.5667 -134.6333 302° West 450 518 34,000  Level Anchorage Center
Sat 11:16:41 PM 53.6167 -134.8167 295° West 460 529 34,000  Level Anchorage Center
Sat 11:17:41 PM 53.6833 -135.0167 299° West 460 529 34,000  Level Anchorage Center
Sat 11:18:41 PM 53.7500 -135.2000 302° West 460 529 34,000  Level Anchorage Center
Sat 11:19:42 PM 53.8000 -135.3833 295° West 450 518 34,000  Level Anchorage Center
Sat 11:20:42 PM 53.8667 -135.5667 302° West 460 529 34,000  Level Anchorage Center
Sat 11:21:42 PM 53.9167 -135.7667 293° West 450 518 34,000  Level Anchorage Center
Sat 11:22:42 PM 53.9833 -135.9500 302° West 450 518 34,000  Level Anchorage Center
Sat 11:23:43 PM 54.0333 -136.1500 293° West 460 529 34,000  Level Anchorage Center
Sat 11:24:43 PM 54.1000 -136.3333 302° West 450 518 34,000  Level Anchorage Center
Sat 11:25:43 PM 54.1667 -136.5167 302° West 450 518 34,000  Level Anchorage Center
Sat 11:26:44 PM 54.2167 -136.6833 297° West 450 518 34,000  Level Anchorage Center
Sat 11:27:44 PM 54.2667 -136.8667 295° West 440 506 34,000  Level Anchorage Center
Sat 11:28:45 PM 54.3333 -137.0500 302° West 450 518 34,000  Level Anchorage Center
Sat 11:29:45 PM 54.3833 -137.2500 293° West 450 518 34,000  Level Anchorage Center
Sat 11:30:45 PM 54.4500 -137.4333 302° West 450 518 34,000  Level Anchorage Center
Sat 11:31:46 PM 54.5000 -137.6167 295° West 440 506 34,000  Level Anchorage Center
Sat 11:32:46 PM 54.5667 -137.8167 300° West 440 506 34,000  Level Anchorage Center
Sat 11:33:46 PM 54.6167 -138.0000 295° West 440 506 34,000  Level Anchorage Center
Sat 11:34:47 PM 54.6667 -138.1833 295° West 430 495 34,000  Level Anchorage Center
Sat 11:35:47 PM 54.7167 -138.3667 295° West 430 495 34,000  Level Anchorage Center
Sat 11:36:47 PM 54.7833 -138.5667 300° West 440 506 34,000  Level Anchorage Center
Sat 11:37:48 PM 54.8333 -138.7500 295° West 430 495 34,000  Level Anchorage Center
Sat 11:38:48 PM 54.8833 -138.9333 295° West 440 506 34,000  Level Anchorage Center
Sat 11:39:48 PM 54.9500 -139.1167 302° West 420 483 34,000  Level Anchorage Center
Sat 11:40:49 PM 55.0000 -139.3167 294° West 430 495 34,000  Level Anchorage Center
Sat 11:42:09 PM 55.0667 -139.6500 289° West 430 495 34,000  Level Vancouver Center
Sat 11:43:09 PM 55.1167 -139.8500 294° West 430 495 34,000  Level Vancouver Center
Sat 11:43:50 PM 55.1500 -139.8667 344° North 420 483 34,000  Level Anchorage Center
Sat 11:45:51 PM 55.2667 -140.2833 296° West 420 483 34,000  Level Anchorage Center
Sat 11:46:51 PM 55.3167 -140.4833 294° West 440 506 34,000  Level Anchorage Center
Sat 11:47:51 PM 55.3833 -140.6667 303° West 450 518 34,000  Level Anchorage Center
Sat 11:48:52 PM 55.4167 -140.8500 288° West 410 472 34,000  Level Anchorage Center
Sat 11:49:52 PM 55.4667 -141.0333 296° West 410 472 34,000  Level Anchorage Center
Sat 11:50:52 PM 55.5167 -141.2333 294° West 430 495 34,000  Level Anchorage Center
Sat 11:51:53 PM 55.5667 -141.4167 296° West 420 483 34,000  Level Anchorage Center
Sat 11:52:53 PM 55.6167 -141.6167 294° West 440 506 34,000  Level Anchorage Center
Sat 11:53:54 PM 55.6667 -141.8000 296° West 420 483 34,000  Level Anchorage Center
Sat 11:54:54 PM 55.7167 -141.9833 296° West 410 472 34,000  Level Anchorage Center
Sat 11:55:54 PM 55.7500 -142.1833 287° West 420 483 34,000  Level Anchorage Center
Sat 11:56:55 PM 55.8167 -142.3667 303° West 430 495 34,000  Level Anchorage Center
Sat 11:57:55 PM 55.8500 -142.5333 290° West 400 460 34,000  Level Anchorage Center
Sat 11:58:55 PM 55.8833 -142.7167 288° West 430 495 34,000  Level Anchorage Center
Sat 11:59:56 PM 55.9333 -142.9167 294° West 420 483 34,000  Level Anchorage Center
Sun 12:00:56 AM 55.9833 -143.1167 294° West 410 472 34,000  Level Anchorage Center
Sun 12:01:56 AM 56.0167 -143.3000 288° West 410 472 34,000  Level Anchorage Center
Sun 12:02:57 AM 56.0667 -143.5000 294° West 410 472 34,000  Level Anchorage Center
Sun 12:05:00 AM 56.1196 -143.7252 293° West  Level FlightAware Approximate
Sun 12:08:08 AM 56.3000 -144.4833 291° West 390 449 34,000  Level Anchorage Center
Sun 12:09:08 AM 56.3333 -144.6667 288° West 400 460 34,000  Level Anchorage Center
Sun 12:10:09 AM 56.3833 -144.8500 296° West 400 460 34,000  Level Anchorage Center
Sun 12:11:09 AM 56.4167 -145.0500 287° West 400 460 34,000  Level Anchorage Center
Sun 12:12:00 AM 56.4635 -145.2411 291° West  Level FlightAware Approximate
Sun 12:12:09 AM 56.4667 -145.2333 296° West 410 472 34,000  Level Anchorage Center
Sun 12:13:00 AM 56.5101 -145.4607 291° West  Level FlightAware Approximate
Sun 12:13:10 AM 56.5000 -145.4333 287° West 410 472 34,000  Level Anchorage Center
Sun 12:14:10 AM 56.5333 -145.6167 288° West 400 460 34,000  Level Anchorage Center
Sun 12:15:11 AM 56.5833 -145.8167 294° West 400 460 34,000  Level Anchorage Center
Sun 12:16:11 AM 56.6167 -146.0000 288° West 410 472 34,000  Level Anchorage Center
Sun 12:17:11 AM 56.6667 -146.2000 295° West 400 460 34,000  Level Anchorage Center
Sun 12:18:12 AM 56.7000 -146.3833 288° West 400 460 34,000  Level Anchorage Center
Sun 12:19:12 AM 56.7333 -146.5667 288° West 400 460 34,000  Level Anchorage Center
Sun 12:20:12 AM 56.7833 -146.7667 295° West 410 472 34,000  Level Anchorage Center
Sun 12:21:13 AM 56.8167 -146.9667 287° West 410 472 34,000  Level Anchorage Center
Sun 12:22:13 AM 56.8500 -147.1667 287° West 410 472 34,000  Level Anchorage Center
Sun 12:23:13 AM 56.8833 -147.3500 288° West 400 460 34,000  Level Anchorage Center
Sun 12:24:14 AM 56.9333 -147.5500 295° West 390 449 34,000  Level Anchorage Center
Sun 12:25:14 AM 56.9667 -147.7500 287° West 410 472 34,000  Level Anchorage Center
Sun 12:26:14 AM 57.0000 -147.9333 289° West 400 460 34,000  Level Anchorage Center
Sun 12:27:15 AM 57.0333 -148.1333 287° West 410 472 34,000  Level Anchorage Center
Sun 12:28:15 AM 57.0833 -148.3333 295° West 400 460 34,000  Level Anchorage Center
Sun 12:29:16 AM 57.1167 -148.5333 287° West 410 472 34,000  Level Anchorage Center
Sun 12:30:16 AM 57.1500 -148.7333 287° West 400 460 34,000  Level Anchorage Center
Sun 12:31:16 AM 57.1833 -148.9333 287° West 400 460 34,000  Level Anchorage Center
Sun 12:32:17 AM 57.2167 -149.1167 289° West 400 460 34,000  Level Anchorage Center
Sun 12:33:17 AM 57.2500 -149.3167 287° West 400 460 34,000  Level Anchorage Center
Sun 12:34:17 AM 57.2833 -149.5167 287° West 390 449 34,000  Level Anchorage Center
Sun 12:35:18 AM 57.3167 -149.7167 287° West 400 460 34,000  Level Anchorage Center
Sun 12:36:18 AM 57.3500 -149.9167 287° West 400 460 34,000  Level Anchorage Center
Sun 12:37:18 AM 57.3833 -150.1000 289° West 400 460 34,000  Level Anchorage Center
Sun 12:38:19 AM 57.4167 -150.3000 287° West 390 449 34,000  Level Anchorage Center
Sun 12:39:19 AM 57.4500 -150.5000 287° West 390 449 34,000  Level Anchorage Center
Sun 12:40:19 AM 57.4833 -150.7000 287° West 410 472 34,000  Level Anchorage Center
Sun 12:41:20 AM 57.5167 -150.9000 287° West 390 449 34,000  Level Anchorage Center
Sun 12:42:20 AM 57.5500 -151.1167 286° West 380 437 34,000  Level Anchorage Center
Sun 12:43:21 AM 57.5667 -151.3167 279° West 400 460 34,000  Level Anchorage Center
Sun 12:44:21 AM 57.6000 -151.5000 289° West 380 437 34,000  Level Anchorage Center
Sun 12:45:21 AM 57.6333 -151.7000 287° West 390 449 34,000  Level Anchorage Center
Sun 12:46:22 AM 57.6500 -151.9000 279° West 390 449 34,000  Level Anchorage Center
Sun 12:47:22 AM 57.6833 -152.1000 287° West 390 449 34,000  Level Anchorage Center
Sun 12:48:22 AM 57.7167 -152.3000 287° West 380 437 34,000  Level Anchorage Center
Sun 12:49:23 AM 57.7333 -152.4833 280° West 390 449 34,000  Level Anchorage Center
Sun 12:50:23 AM 57.7667 -152.6833 287° West 390 449 34,000  Level Anchorage Center
Sun 12:51:23 AM 57.7833 -152.8833 279° West 390 449 34,000  Level Anchorage Center
Sun 12:52:23 AM 57.8167 -153.0833 287° West 390 449 34,000  Level Anchorage Center
Sun 12:53:24 AM 57.8500 -153.2833 287° West 400 460 34,000  Level Anchorage Center
Sun 12:54:24 AM 57.8667 -153.4833 279° West 390 449 34,000  Level Anchorage Center
Sun 12:55:24 AM 57.9000 -153.7000 286° West 400 460 34,000  Level Anchorage Center
Sun 12:56:25 AM 57.9167 -153.9000 279° West 390 449 34,000  Level Anchorage Center
Sun 12:57:25 AM 57.9500 -154.1000 288° West 390 449 34,000  Level Anchorage Center
Sun 12:58:25 AM 57.9667 -154.3000 279° West 390 449 34,000  Level Anchorage Center
Sun 12:59:26 AM 58.0000 -154.5000 288° West 390 449 34,000  Level Anchorage Center
Sun 01:00:26 AM 58.0167 -154.7000 279° West 390 449 34,000  Level Anchorage Center
Sun 01:01:26 AM 58.0333 -154.9000 279° West 380 437 34,000  Level Anchorage Center
Sun 01:02:27 AM 58.0667 -155.1000 288° West 390 449 34,000  Level Anchorage Center
Sun 01:03:27 AM 58.0833 -155.3167 278° West 390 449 34,000  Level Anchorage Center
Sun 01:04:28 AM 58.1167 -155.5167 288° West 390 449 34,000  Level Anchorage Center
Sun 01:05:28 AM 58.1333 -155.7167 279° West 400 460 34,000  Level Anchorage Center
Sun 01:06:28 AM 58.1500 -155.9333 278° West 400 460 34,000  Level Anchorage Center
Sun 01:07:29 AM 58.1833 -156.1333 288° West 400 460 34,000  Level Anchorage Center
Sun 01:08:29 AM 58.2000 -156.3500 278° West 400 460 34,000  Level Anchorage Center
Sun 01:09:29 AM 58.2167 -156.5500 279° West 400 460 34,000  Level Anchorage Center
Sun 01:10:30 AM 58.2333 -156.7667 278° West 400 460 34,000  Level Anchorage Center
Sun 01:11:30 AM 58.2667 -156.9833 286° West 400 460 34,000  Level Anchorage Center
Sun 01:12:30 AM 58.2833 -157.1833 279° West 400 460 34,000  Level Anchorage Center
Sun 01:13:31 AM 58.3000 -157.4000 278° West 410 472 34,000  Level Anchorage Center
Sun 01:14:31 AM 58.3167 -157.6167 278° West 410 472 34,000  Level Anchorage Center
Sun 01:15:31 AM 58.3333 -157.8333 278° West 400 460 34,000  Level Anchorage Center
Sun 01:16:32 AM 58.3667 -158.0333 288° West 390 449 34,000  Level Anchorage Center
Sun 01:17:32 AM 58.3833 -158.2500 278° West 400 460 34,000  Level Anchorage Center
Sun 01:18:33 AM 58.4000 -158.4667 278° West 410 472 34,000  Level Anchorage Center
Sun 01:19:33 AM 58.4167 -158.6833 278° West 400 460 34,000  Level Anchorage Center
Sun 01:20:33 AM 58.4333 -158.9000 278° West 410 472 34,000  Level Anchorage Center
Sun 01:21:34 AM 58.4500 -159.1167 278° West 410 472 34,000  Level Anchorage Center
Sun 01:22:34 AM 58.4667 -159.3333 278° West 410 472 34,000  Level Anchorage Center
Sun 01:23:34 AM 58.4833 -159.5667 278° West 410 472 34,000  Level Anchorage Center
Sun 01:24:35 AM 58.5000 -159.7833 278° West 410 472 34,000  Level Anchorage Center
Sun 01:25:35 AM 58.5167 -160.0000 278° West 410 472 34,000  Level Anchorage Center
Sun 01:26:35 AM 58.5333 -160.2167 278° West 410 472 34,000  Level Anchorage Center
Sun 01:27:36 AM 58.5500 -160.4333 278° West 410 472 34,000  Level Anchorage Center
Sun 01:28:36 AM 58.5667 -160.6667 278° West 410 472 34,000  Level Anchorage Center
Sun 01:29:36 AM 58.5833 -160.8833 278° West 410 472 34,000  Level Anchorage Center
Sun 01:30:37 AM 58.6000 -161.1000 278° West 410 472 34,000  Level Anchorage Center
Sun 01:31:37 AM 58.6000 -161.3167 270° West 420 483 34,000  Level Anchorage Center
Sun 01:32:37 AM 58.6167 -161.5500 278° West 410 472 34,000  Level Anchorage Center
Sun 01:33:38 AM 58.6333 -161.7667 278° West 410 472 34,000  Level Anchorage Center
Sun 01:34:38 AM 58.6500 -162.0333 277° West 440 506 34,000  Level Anchorage Center
Sun 01:35:39 AM 58.6667 -162.2667 278° West 430 495 34,000  Level Anchorage Center
Sun 01:36:39 AM 58.6667 -162.5000 270° West 420 483 34,000  Level Anchorage Center
Sun 01:37:39 AM 58.6833 -162.7167 279° West 450 518 34,000  Level Anchorage Center
Sun 01:38:40 AM 58.6833 -162.9500 270° West 430 495 34,000  Level Anchorage Center
Sun 01:39:40 AM 58.7000 -163.1833 278° West 440 506 34,000  Level Anchorage Center
Sun 01:40:40 AM 58.7000 -163.4167 270° West 430 495 34,000  Level Anchorage Center
Sun 01:41:41 AM 58.7167 -163.6500 278° West 430 495 34,000  Level Anchorage Center
Sun 01:42:41 AM 58.7167 -163.8833 270° West 440 506 34,000  Level Anchorage Center
Sun 01:43:41 AM 58.7333 -164.1167 278° West 430 495 34,000  Level Anchorage Center
Sun 01:44:42 AM 58.7333 -164.3500 270° West 440 506 34,000  Level Anchorage Center
Sun 01:45:37 AM 58.7500 -164.5833 278° West 440 506 34,000  Level Anchorage Center
Sun 01:46:37 AM 58.7500 -164.8167 270° West 430 495 34,000  Level Anchorage Center
Sun 01:47:37 AM 58.7667 -165.0667 277° West 440 506 34,000  Level Anchorage Center
Sun 01:48:37 AM 58.7667 -165.3000 270° West 440 506 34,000  Level Anchorage Center
Sun 01:49:37 AM 58.7667 -165.5333 270° West 440 506 34,000  Level Anchorage Center
Sun 01:50:37 AM 58.7833 -165.7667 278° West 440 506 34,000  Level Anchorage Center
Sun 01:51:37 AM 58.7833 -166.0000 270° West 440 506 34,000  Level Anchorage Center
Sun 01:52:37 AM 58.7833 -166.2333 270° West 440 506 34,000  Level Anchorage Center
Sun 01:53:37 AM 58.7833 -166.4833 270° West 440 506 34,000  Level Anchorage Center
Sun 01:54:37 AM 58.7833 -166.7167 270° West 440 506 34,000  Level Anchorage Center
Sun 01:55:37 AM 58.7833 -166.9333 270° West 430 495 34,000  Level Anchorage Center
Sun 01:56:38 AM 58.7833 -167.1667 270° West 430 495 34,000  Level Anchorage Center
Sun 01:57:37 AM 58.8000 -167.4000 278° West 450 518 34,000  Level Anchorage Center
Sun 01:58:38 AM 58.8000 -167.6500 270° West 440 506 34,000  Level Anchorage Center
Sun 01:59:38 AM 58.8000 -167.8833 270° West 440 506 34,000  Level Anchorage Center
Sun 02:00:38 AM 58.8000 -168.1333 270° West 450 518 34,000  Level Anchorage Center
Sun 02:01:38 AM 58.8000 -168.3667 270° West 450 518 34,000  Level Anchorage Center
Sun 02:02:38 AM 58.8000 -168.6167 270° West 450 518 34,000  Level Anchorage Center
Sun 02:03:38 AM 58.8000 -168.8500 270° West 450 518 34,000  Level Anchorage Center
Sun 02:04:38 AM 58.8000 -169.1000 270° West 450 518 34,000  Level Anchorage Center
Sun 02:05:38 AM 58.8000 -169.3500 270° West 460 529 34,000  Level Anchorage Center
Sun 02:06:38 AM 58.7833 -169.6000 263° West 460 529 34,000  Level Anchorage Center
Sun 02:07:38 AM 58.7833 -169.8500 270° West 460 529 34,000  Level Anchorage Center
Sun 02:08:38 AM 58.7833 -170.1000 270° West 460 529 34,000  Level Anchorage Center
Sun 02:09:38 AM 58.7833 -170.3500 270° West 470 541 34,000  Level Anchorage Center
Sun 02:10:38 AM 58.7833 -170.6000 270° West 460 529 34,000  Level Anchorage Center
Sun 02:11:38 AM 58.7667 -170.8500 263° West 460 529 34,000  Level Anchorage Center
Sun 02:12:38 AM 58.7667 -171.1000 270° West 470 541 34,000  Level Anchorage Center
Sun 02:13:39 AM 58.7667 -171.3500 270° West 460 529 34,000  Level Anchorage Center
Sun 02:14:39 AM 58.7500 -171.6000 263° West 460 529 34,000  Level Anchorage Center
Sun 02:15:39 AM 58.7333 -171.8500 263° West 470 541 34,000  Level Anchorage Center
Sun 02:16:39 AM 58.7167 -172.1000 263° West 460 529 34,000  Level Anchorage Center
Sun 02:17:39 AM 58.7167 -172.3500 270° West 460 529 34,000  Level Anchorage Center
Sun 02:18:39 AM 58.7000 -172.6000 263° West 470 541 34,000  Level Anchorage Center
Sun 02:19:39 AM 58.6833 -172.8500 263° West 470 541 34,000  Level Anchorage Center
Sun 02:20:39 AM 58.6667 -173.1000 263° West 470 541 34,000  Level Anchorage Center
Sun 02:21:39 AM 58.6500 -173.3500 263° West 480 552 34,000  Level Anchorage Center
Sun 02:22:39 AM 58.6333 -173.6167 263° West 480 552 34,000  Level Anchorage Center
Sun 02:23:39 AM 58.6167 -173.8667 263° West 480 552 34,000  Level Anchorage Center
Sun 02:24:39 AM 58.6000 -174.1333 263° West 490 564 34,000  Level Anchorage Center
Sun 02:25:39 AM 58.5833 -174.3833 263° West 480 552 34,000  Level Anchorage Center
Sun 02:26:40 AM 58.5667 -174.6500 263° West 490 564 34,000  Level Anchorage Center
Sun 02:27:40 AM 58.5500 -174.9000 263° West 480 552 34,000  Level Anchorage Center
Sun 02:28:39 AM 58.5333 -175.1667 263° West 490 564 34,000  Level Anchorage Center
Sun 02:29:39 AM 58.5167 -175.4167 263° West 490 564 34,000  Level Anchorage Center
Sun 02:30:40 AM 58.5000 -175.6833 263° West 490 564 34,000  Level Anchorage Center
Sun 02:31:40 AM 58.4667 -175.9333 256° West 490 564 34,000  Level Anchorage Center
Sun 02:32:40 AM 58.4500 -176.2000 263° West 490 564 34,000  Level Anchorage Center
Sun 02:33:40 AM 58.4333 -176.4500 263° West 490 564 34,000  Level Anchorage Center
Sun 02:34:40 AM 58.4000 -176.7167 257° West 500 575 34,000  Level Anchorage Center
Sun 02:35:40 AM 58.3833 -176.9667 263° West 490 564 34,000  Level Anchorage Center
Sun 02:36:40 AM 58.3500 -177.1833 254° West 490 564 34,000  Level Anchorage Center
Sun 02:38:00 AM 58.2766 -177.4786 245° Southwest  Level FlightAware Approximate
Sun 02:45:00 AM 57.8800 -179.0086 245° Southwest  Level FlightAware Approximate
Sun 02:46:00 AM 57.8218 -179.2243 243° Southwest  Level FlightAware Approximate
Sun 02:47:00 AM 57.7633 -179.4394 243° Southwest  Level FlightAware Approximate
Sun 02:48:00 AM 57.7044 -179.6538 243° Southwest  Level FlightAware Approximate
Sun 02:49:00 AM 57.6452 -179.8675 243° Southwest  Level FlightAware Approximate
Sun 02:50:00 AM 57.5856 179.9195 243° Southwest  Level FlightAware Approximate
Sun 02:51:00 AM 57.5257 179.7072 242° Southwest  Level FlightAware Approximate
Sun 02:52:00 AM 57.4654 179.4956 242° Southwest  Level FlightAware Approximate
Sun 02:52:58 AM 57.3500 179.0833 242° Southwest 501 577 34,000  Level Anchorage Center
Sun 02:53:00 AM 57.4047 179.2847 242° Southwest  Level FlightAware Approximate
Sun 02:54:00 AM 57.3437 179.0745 242° Southwest  Level FlightAware Approximate
Sun 02:55:00 AM 57.2823 178.8650 242° Southwest  Level FlightAware Approximate
Sun 02:56:00 AM 57.2206 178.6562 241° Southwest  Level FlightAware Approximate
Sun 02:57:00 AM 57.1586 178.4481 241° Southwest  Level FlightAware Approximate
Sun 02:58:00 AM 57.0962 178.2407 241° Southwest  Level FlightAware Approximate
Sun 02:59:00 AM 56.8992 177.5640 241° Southwest 501 577 34,000  Level FlightAware Transoceanic
Sun 03:00:00 AM 56.8333 177.3500 240° Southwest 501 577 34,000  Level FlightAware Transoceanic
Sun 03:00:14 AM 56.8333 177.3500 240° Southwest 501 577 34,000  Level Anchorage Center
Sun 03:01:00 AM 56.7619 177.1252 240° Southwest 501 577 34,000  Level FlightAware Transoceanic
Sun 03:02:00 AM 56.6901 176.9012 240° Southwest 501 577 34,000  Level FlightAware Transoceanic
Sun 03:03:00 AM 56.6179 176.6781 239° Southwest 501 577 34,000  Level FlightAware Transoceanic
Sun 03:04:00 AM 56.5453 176.4558 239° Southwest 501 577 34,000  Level FlightAware Transoceanic
Sun 03:05:00 AM 56.4723 176.2344 239° Southwest 501 577 34,000  Level FlightAware Transoceanic
Sun 03:06:00 AM 56.4159 176.0647 239° Southwest 501 577 34,000  Level FlightAware Transoceanic
Sun 03:07:00 AM 56.3451 175.8532 239° Southwest 501 577 34,000  Level FlightAware Transoceanic
Sun 03:08:00 AM 56.2738 175.6425 239° Southwest 501 577 34,000  Level FlightAware Transoceanic
Sun 03:09:00 AM 56.2023 175.4327 238° Southwest 501 577 34,000  Level FlightAware Transoceanic
Sun 03:10:00 AM 56.1304 175.2236 238° Southwest 501 577 34,000  Level FlightAware Transoceanic
Sun 03:11:00 AM 56.0581 175.0152 238° Southwest 501 577 34,000 1,935 Level FlightAware Transoceanic
Sun 03:11:02 AM 56.0500 175.0167 237° Southwest 500 575 36,000  Climbing Anchorage Center
Sun 03:12:00 AM 55.9855 174.8077 238° Southwest 501 577 34,000  Descending FlightAware Transoceanic
Sun 03:12:02 AM 55.9833 174.8167 239° Southwest 500 575 36,000  Climbing Anchorage Center
Sun 03:13:00 AM 55.9125 174.6009 238° Southwest 501 577 34,000  Descending FlightAware Transoceanic
Sun 03:13:02 AM 55.9000 174.6000 236° Southwest 500 575 36,000  Climbing Anchorage Center
Sun 03:14:00 AM 55.8392 174.3950 238° Southwest 501 577 34,000  Descending FlightAware Transoceanic
Sun 03:14:02 AM 55.8333 174.4167 237° Southwest 490 564 36,000  Climbing Anchorage Center
Sun 03:15:00 AM 55.7655 174.1897 237° Southwest 501 577 34,000  Descending FlightAware Transoceanic
Sun 03:15:03 AM 55.7500 174.1833 238° Southwest 500 575 36,000  Climbing Anchorage Center
Sun 03:16:00 AM 55.6915 173.9853 237° Southwest 501 577 34,000  Descending FlightAware Transoceanic
Sun 03:16:02 AM 55.6667 173.9500 238° Southwest 500 575 36,000 1,905 Climbing Anchorage Center
Sun 03:17:03 AM 55.6000 173.7667 237° Southwest 510 587 36,000  Level Anchorage Center
Sun 03:18:02 AM 55.5167 173.5500 236° Southwest 510 587 36,000  Level Anchorage Center
Sun 03:19:02 AM 55.4500 173.3667 237° Southwest 510 587 36,000  Level Anchorage Center
Sun 03:20:03 AM 55.3667 173.1333 238° Southwest 520 598 36,000  Level Anchorage Center
Sun 03:21:03 AM 55.3000 172.9500 237° Southwest 520 598 36,000  Level Anchorage Center
Sun 03:22:03 AM 55.2167 172.7167 238° Southwest 520 598 36,000  Level Anchorage Center
Sun 03:23:03 AM 55.1333 172.5333 232° Southwest 530 610 36,000  Level Anchorage Center
Sun 03:24:03 AM 55.0500 172.3167 236° Southwest 510 587 36,000  Level Anchorage Center
Sun 03:25:03 AM 54.9667 172.0833 238° Southwest 520 598 36,000  Level Anchorage Center
Sun 03:26:03 AM 54.8833 171.9000 232° Southwest 530 610 36,000  Level Anchorage Center
Sun 03:27:03 AM 54.8000 171.6667 238° Southwest 520 598 36,000  Level Anchorage Center
Sun 03:28:03 AM 54.7333 171.5000 235° Southwest 510 587 36,000  Level Anchorage Center
Sun 03:29:03 AM 54.6333 171.2833 231° Southwest 520 598 36,000  Level Anchorage Center
Sun 03:30:03 AM 54.5667 171.1167 235° Southwest 510 587 36,000  Level Anchorage Center
Sun 03:31:03 AM 54.4667 170.8833 234° Southwest 520 598 36,000  Level Anchorage Center
Sun 03:32:03 AM 54.3667 170.6667 232° Southwest 540 621 36,000  Level Anchorage Center
Sun 03:33:03 AM 54.3000 170.5000 236° Southwest 510 587 36,000  Level Anchorage Center
Sun 03:34:03 AM 54.2000 170.2833 232° Southwest 530 610 36,000  Level Anchorage Center
Sun 03:35:04 AM 54.1333 170.1167 236° Southwest 510 587 36,000  Level Anchorage Center
Sun 03:36:04 AM 54.0333 169.9000 232° Southwest 520 598 36,000  Level Anchorage Center
Sun 03:37:04 AM 53.9667 169.7333 236° Southwest 510 587 36,000  Level Anchorage Center
Sun 03:38:04 AM 53.8667 169.5167 232° Southwest 530 610 36,000  Level Anchorage Center
Sun 03:39:04 AM 53.8000 169.3500 236° Southwest 500 575 36,000  Level Anchorage Center
Sun 03:40:04 AM 53.7000 169.1333 232° Southwest 540 621 36,000  Level Anchorage Center
Sun 03:41:04 AM 53.6167 168.9000 239° Southwest 550 633 36,000  Level Anchorage Center
Sun 03:42:04 AM 53.5667 168.7167 245° Southwest 520 598 36,000  Level Anchorage Center
Sun 03:43:04 AM 53.5000 168.5167 241° Southwest 530 610 36,000  Level Anchorage Center
Sun 03:44:15 AM 53.4167 168.2333 240° Southwest 518 596 36,000  Level Anchorage Center
Sun 03:45:51 AM 53.3000 167.9000 239° Southwest 514 592 36,000  Level Anchorage Center
Sun 03:50:00 AM 52.9830 167.0175 239° Southwest 518 596 36,000  Level FlightAware Transoceanic
Sun 03:51:00 AM 52.9096 166.8173 239° Southwest 518 596 36,000  Level FlightAware Transoceanic
Sun 03:52:00 AM 52.8594 166.6811 238° Southwest 514 592 36,000  Level FlightAware Transoceanic
Sun 03:53:00 AM 52.7847 166.4804 238° Southwest 514 592 36,000  Level FlightAware Transoceanic
Sun 03:54:00 AM 52.7098 166.2804 238° Southwest 514 592 36,000  Level FlightAware Transoceanic
Sun 03:55:00 AM 52.6344 166.0810 238° Southwest 514 592 36,000  Level FlightAware Transoceanic
Sun 03:56:00 AM 52.5588 165.8824 238° Southwest 514 592 36,000  Level FlightAware Transoceanic
Sun 03:57:00 AM 52.4828 165.6844 238° Southwest 514 592 36,000  Level FlightAware Transoceanic
Sun 03:58:00 AM 52.4065 165.4871 238° Southwest 514 592 36,000  Level FlightAware Transoceanic
Sun 03:59:00 AM 52.3299 165.2905 237° Southwest 514 592 36,000  Level FlightAware Transoceanic
Sun 04:00:00 AM 52.2529 165.0946 237° Southwest 514 592 36,000  Level FlightAware Transoceanic
Sun 04:01:00 AM 52.1757 164.8993 237° Southwest 514 592 36,000  Level FlightAware Transoceanic
Sun 04:02:00 AM 52.0981 164.7048 237° Southwest 514 592 36,000  Level FlightAware Transoceanic
Sun 04:03:00 AM 52.0201 164.5109 237° Southwest 514 592 36,000  Level FlightAware Transoceanic
Sun 04:04:00 AM 51.9419 164.3177 237° Southwest 514 592 36,000  Level FlightAware Transoceanic
Sun 04:05:00 AM 51.8633 164.1251 236° Southwest 514 592 36,000  Level FlightAware Transoceanic
Sun 04:06:00 AM 51.7845 163.9333 236° Southwest 514 592 36,000  Level FlightAware Transoceanic
Sun 04:07:00 AM 51.7053 163.7421 236° Southwest 514 592 36,000  Level FlightAware Transoceanic
Sun 04:07:38 AM 51.6500 163.6500 236° Southwest 505 581 36,000  Level Anchorage Center
Sun 04:08:00 AM 51.6258 163.5515 236° Southwest 514 592 36,000  Level FlightAware Transoceanic
Sun 04:09:00 AM 51.5460 163.3617 236° Southwest 514 592 36,000  Level FlightAware Transoceanic
Sun 04:10:00 AM 51.4659 163.1725 236° Southwest 514 592 36,000  Level FlightAware Transoceanic
Sun 04:11:00 AM 51.3855 162.9839 236° Southwest 514 592 36,000  Level FlightAware Transoceanic
Sun 04:12:00 AM 51.3048 162.7961 235° Southwest 514 592 36,000  Level FlightAware Transoceanic
Sun 04:12:31 AM 51.2667 162.7333 236° Southwest 496 571 36,000  Level Anchorage Center
Sun 04:13:00 AM 51.2605 162.7247 236° Southwest 505 581 36,000  Level FlightAware Transoceanic
Sun 04:14:00 AM 51.1817 162.5416 235° Southwest 505 581 36,000  Level FlightAware Transoceanic
Sun 04:15:00 AM 51.1026 162.3590 235° Southwest 505 581 36,000  Level FlightAware Transoceanic
Sun 04:16:00 AM 51.0233 162.1771 235° Southwest 505 581 36,000  Level FlightAware Transoceanic
Sun 04:17:00 AM 50.9436 161.9958 235° Southwest 505 581 36,000  Level FlightAware Transoceanic
Sun 04:18:00 AM 50.8120 161.6949 235° Southwest 496 571 36,000  Level FlightAware Transoceanic
Sun 04:19:00 AM 50.7354 161.5238 235° Southwest 496 571 36,000  Level FlightAware Transoceanic
Sun 04:20:00 AM 50.6585 161.3533 234° Southwest 496 571 36,000  Level FlightAware Transoceanic
Sun 04:21:00 AM 50.5813 161.1833 234° Southwest 496 571 36,000  Level FlightAware Transoceanic
Sun 04:22:00 AM 50.5039 161.0139 234° Southwest 496 571 36,000  Level FlightAware Transoceanic
Sun 04:23:00 AM 50.4263 160.8450 234° Southwest 496 571 36,000  Level FlightAware Transoceanic
Sun 04:24:00 AM 50.3484 160.6767 234° Southwest 496 571 36,000  Level FlightAware Transoceanic
Sun 04:25:00 AM 50.2702 160.5090 234° Southwest 496 571 36,000  Level FlightAware Transoceanic
Sun 04:26:00 AM 50.1919 160.3418 234° Southwest 496 571 36,000  Level FlightAware Transoceanic
Sun 04:26:07 AM 50.2000 160.3833 234° Southwest 480 552 36,000  Level Anchorage Center
Sun 04:27:00 AM 50.1133 160.1751 234° Southwest 496 571 36,000  Level FlightAware Transoceanic
Sun 04:28:00 AM 50.0344 160.0090 233° Southwest 496 571 36,000  Level FlightAware Transoceanic
Sun 04:29:00 AM 49.9553 159.8434 233° Southwest 496 571 36,000  Level FlightAware Transoceanic
Sun 04:30:00 AM 49.8760 159.6784 233° Southwest 496 571 36,000  Level FlightAware Transoceanic
Sun 04:31:00 AM 49.7965 159.5139 233° Southwest 496 571 36,000  Level FlightAware Transoceanic
Sun 04:32:00 AM 49.7167 159.3500 233° Southwest 480 552 36,000  Level FlightAware Transoceanic
Sun 04:33:00 AM 49.6356 159.1846 233° Southwest 480 552 36,000  Level FlightAware Transoceanic
Sun 04:34:00 AM 49.5544 159.0198 233° Southwest 480 552 36,000  Level FlightAware Transoceanic
Sun 04:35:00 AM 49.4729 158.8555 233° Southwest 480 552 36,000  Level FlightAware Transoceanic
Sun 04:36:00 AM 49.3912 158.6918 232° Southwest 480 552 36,000  Level FlightAware Transoceanic
Sun 04:37:00 AM 49.3092 158.5286 232° Southwest 480 552 36,000  Level FlightAware Transoceanic
Sun 04:38:00 AM 49.2270 158.3659 232° Southwest 480 552 36,000  Level FlightAware Transoceanic
Sun 04:39:00 AM 49.1446 158.2038 232° Southwest 480 552 36,000  Level FlightAware Transoceanic
Sun 04:40:00 AM 49.0619 158.0422 232° Southwest 480 552 36,000  Level FlightAware Transoceanic
Sun 04:41:00 AM 48.9791 157.8812 232° Southwest 480 552 36,000  Level FlightAware Transoceanic
Sun 04:42:00 AM 48.8960 157.7207 232° Southwest 480 552 36,000  Level FlightAware Transoceanic
Sun 04:43:00 AM 48.8127 157.5607 232° Southwest 480 552 36,000  Level FlightAware Transoceanic
Sun 04:44:00 AM 48.7291 157.4013 231° Southwest 480 552 36,000  Level FlightAware Transoceanic
Sun 04:45:00 AM 48.6454 157.2424 231° Southwest 480 552 36,000  Level FlightAware Transoceanic
Sun 04:46:00 AM 48.5614 157.0840 231° Southwest 480 552 36,000  Level FlightAware Transoceanic
Sun 04:47:00 AM 48.4772 156.9262 231° Southwest 480 552 36,000  Level FlightAware Transoceanic
Sun 04:48:00 AM 48.3928 156.7688 231° Southwest 480 552 36,000  Level FlightAware Transoceanic
Sun 04:49:00 AM 48.3082 156.6120 231° Southwest 480 552 36,000  Level FlightAware Transoceanic
Sun 04:50:00 AM 48.2234 156.4557 231° Southwest 480 552 36,000  Level FlightAware Transoceanic
Sun 04:51:00 AM 48.1383 156.3000 231° Southwest 480 552 36,000  Level FlightAware Transoceanic
Sun 04:52:00 AM 48.0531 156.1447 231° Southwest 480 552 36,000  Level FlightAware Transoceanic
Sun 04:53:00 AM 47.9676 155.9900 230° Southwest 480 552 36,000  Level FlightAware Transoceanic
Sun 04:54:00 AM 47.8820 155.8358 230° Southwest 480 552 36,000  Level FlightAware Transoceanic
Sun 04:55:00 AM 47.7961 155.6820 230° Southwest 480 552 36,000  Level FlightAware Transoceanic
Sun 04:56:00 AM 47.7100 155.5288 230° Southwest 480 552 36,000  Level FlightAware Transoceanic
Sun 04:57:00 AM 47.6237 155.3761 230° Southwest 480 552 36,000  Level FlightAware Transoceanic
Sun 04:58:00 AM 47.5373 155.2239 230° Southwest 480 552 36,000  Level FlightAware Transoceanic
Sun 04:59:00 AM 47.4506 155.0722 230° Southwest 480 552 36,000  Level FlightAware Transoceanic
Sun 05:00:00 AM 47.3637 154.9210 230° Southwest 480 552 36,000  Level FlightAware Transoceanic
Sun 05:01:00 AM 47.2766 154.7703 230° Southwest 480 552 36,000  Level FlightAware Transoceanic
Sun 05:02:00 AM 47.1893 154.6201 229° Southwest 480 552 36,000  Level FlightAware Transoceanic
Sun 05:03:00 AM 47.1019 154.4704 229° Southwest 480 552 36,000  Level FlightAware Transoceanic
Sun 05:04:00 AM 47.0142 154.3212 229° Southwest 480 552 36,000  Level FlightAware Transoceanic
Sun 05:05:00 AM 46.9263 154.1725 229° Southwest 480 552 36,000  Level FlightAware Transoceanic
Sun 05:06:00 AM 46.8383 154.0242 229° Southwest 480 552 36,000  Level FlightAware Transoceanic
Sun 05:07:00 AM 46.7501 153.8765 229° Southwest 480 552 36,000  Level FlightAware Transoceanic
Sun 05:08:00 AM 46.6616 153.7292 229° Southwest 480 552 36,000  Level FlightAware Transoceanic
Sun 05:09:00 AM 46.5730 153.5824 229° Southwest 480 552 36,000  Level FlightAware Transoceanic
Sun 05:10:00 AM 46.4842 153.4361 229° Southwest 480 552 36,000  Level FlightAware Transoceanic
Sun 05:11:00 AM 46.3952 153.2903 228° Southwest 480 552 36,000  Level FlightAware Transoceanic
Sun 05:12:00 AM 46.3060 153.1449 228° Southwest 480 552 36,000 28 Level FlightAware Transoceanic
Sun 05:13:00 AM 46.2207 153.0065 228° Southwest  Level FlightAware Approximate
Sun 05:14:00 AM 46.1351 152.8685 228° Southwest  Level FlightAware Approximate
Sun 05:15:00 AM 46.1387 152.8756 228° Southwest  Level FlightAware Approximate
Sun 05:16:00 AM 46.0525 152.7387 228° Southwest  Level FlightAware Approximate
Sun 05:17:00 AM 45.9661 152.6022 228° Southwest  Level FlightAware Approximate
Sun 05:18:00 AM 45.8796 152.4662 228° Southwest  Level FlightAware Approximate
Sun 05:19:00 AM 45.7929 152.3306 228° Southwest  Level FlightAware Approximate
Sun 05:20:00 AM 45.7060 152.1954 227° Southwest  Level FlightAware Approximate
Sun 05:21:00 AM 45.6190 152.0606 227° Southwest  Level FlightAware Approximate
Sun 05:22:00 AM 45.5318 151.9262 227° Southwest  Level FlightAware Approximate
Sun 05:23:00 AM 45.4445 151.7923 227° Southwest  Level FlightAware Approximate
Sun 05:24:00 AM 45.3570 151.6588 227° Southwest  Level FlightAware Approximate
Sun 05:25:00 AM 45.2693 151.5257 227° Southwest  Level FlightAware Approximate
Sun 05:26:00 AM 45.1815 151.3930 227° Southwest  Level FlightAware Approximate
Sun 05:27:00 AM 45.0936 151.2607 227° Southwest  Level FlightAware Approximate
Sun 05:28:00 AM 45.0055 151.1288 227° Southwest  Level FlightAware Approximate
Sun 05:29:00 AM 44.9172 150.9973 227° Southwest  Level FlightAware Approximate
Sun 05:30:00 AM 44.8288 150.8662 226° Southwest  Level FlightAware Approximate
Sun 05:31:00 AM 44.7403 150.7355 226° Southwest  Level FlightAware Approximate
Sun 05:32:00 AM 44.6516 150.6053 226° Southwest  Level FlightAware Approximate
Sun 05:33:00 AM 44.5627 150.4754 226° Southwest  Level FlightAware Approximate
Sun 05:34:00 AM 44.4737 150.3459 226° Southwest  Level FlightAware Approximate
Sun 05:35:00 AM 44.3846 150.2168 226° Southwest  Level FlightAware Approximate
Sun 05:36:00 AM 44.2953 150.0881 226° Southwest  Level FlightAware Approximate
Sun 05:37:00 AM 44.2059 149.9598 226° Southwest  Level FlightAware Approximate
Sun 05:38:00 AM 44.1163 149.8319 226° Southwest  Level FlightAware Approximate
Sun 05:39:00 AM 44.0266 149.7044 226° Southwest  Level FlightAware Approximate
Sun 05:40:00 AM 43.9367 149.5773 226° Southwest  Level FlightAware Approximate
Sun 05:41:00 AM 43.8467 149.4505 225° Southwest  Level FlightAware Approximate
Sun 05:42:00 AM 43.7566 149.3241 225° Southwest  Level FlightAware Approximate
Sun 05:43:00 AM 43.6663 149.1982 225° Southwest  Level FlightAware Approximate
Sun 05:44:00 AM 43.5759 149.0725 225° Southwest  Level FlightAware Approximate
Sun 05:45:00 AM 43.4854 148.9473 225° Southwest  Level FlightAware Approximate
Sun 05:46:00 AM 43.3947 148.8224 225° Southwest  Level FlightAware Approximate
Sun 05:46:14 AM 43.4360 148.8790 225° Southwest 483 556 37,000  Level FlightAware ADS-B
Sun 05:46:49 AM 43.3800 148.8030 225° Southwest 477 549 37,000  Level FlightAware ADS-B
Sun 05:47:29 AM 43.3180 148.7180 225° Southwest 482 555 37,000  Level FlightAware ADS-B
Sun 05:48:24 AM 43.2250 148.5900 225° Southwest 485 558 37,000  Level FlightAware ADS-B
Sun 05:49:10 AM 43.1520 148.4900 225° Southwest 487 560 37,000  Level FlightAware ADS-B
Sun 05:49:50 AM 43.0870 148.4020 225° Southwest 487 560 37,000  Level FlightAware ADS-B
Sun 05:50:35 AM 43.0130 148.3030 224° Southwest 486 559 37,000  Level FlightAware ADS-B
Sun 05:51:20 AM 42.9420 148.2070 225° Southwest 493 567 37,000  Level FlightAware ADS-B
Sun 05:51:55 AM 42.8850 148.1300 225° Southwest 496 571 37,000  Level FlightAware ADS-B
Sun 05:52:40 AM 42.8100 148.0290 225° Southwest 497 572 37,000  Level FlightAware ADS-B
Sun 05:53:10 AM 42.7630 147.9670 224° Southwest 498 573 37,000  Level FlightAware ADS-B
Sun 05:53:55 AM 42.6880 147.8670 224° Southwest 500 575 37,000  Level FlightAware ADS-B
Sun 05:54:35 AM 42.6190 147.7760 224° Southwest 496 571 37,000  Level FlightAware ADS-B
Sun 05:55:20 AM 42.5450 147.6780 224° Southwest 498 573 37,000  Level FlightAware ADS-B
Sun 05:56:00 AM 42.4800 147.5920 224° Southwest 499 574 37,000  Level FlightAware ADS-B
Sun 05:56:36 AM 42.4190 147.5120 224° Southwest 503 579 37,000  Level FlightAware ADS-B
Sun 05:57:15 AM 42.3510 147.4240 224° Southwest 512 589 37,000  Level FlightAware ADS-B
Sun 05:57:50 AM 42.2930 147.3470 224° Southwest 514 592 37,000  Level FlightAware ADS-B
Sun 05:58:30 AM 42.2250 147.2580 224° Southwest 516 594 37,000  Level FlightAware ADS-B
Sun 05:59:15 AM 42.1470 147.1570 224° Southwest 517 595 37,000  Level FlightAware ADS-B
Sun 05:59:55 AM 42.0770 147.0670 224° Southwest 517 595 37,000  Level FlightAware ADS-B
Sun 06:00:30 AM 42.0160 146.9880 224° Southwest 514 592 37,000  Level FlightAware ADS-B
Sun 06:01:20 AM 41.9290 146.8760 224° Southwest 515 593 37,000  Level FlightAware ADS-B
Sun 06:02:00 AM 41.8610 146.7880 224° Southwest 516 594 37,000  Level FlightAware ADS-B
Sun 06:02:40 AM 41.7920 146.6990 224° Southwest 516 594 37,000  Level FlightAware ADS-B
Sun 06:03:20 AM 41.7210 146.6090 223° Southwest 514 592 37,000  Level FlightAware ADS-B
Sun 06:04:00 AM 41.6520 146.5220 223° Southwest 514 592 37,000  Level FlightAware ADS-B
Sun 06:04:45 AM 41.5730 146.4210 224° Southwest 514 592 37,000  Level FlightAware ADS-B
Sun 06:05:25 AM 41.5050 146.3350 223° Southwest 514 592 37,000  Level FlightAware ADS-B
Sun 06:06:05 AM 41.4350 146.2460 224° Southwest 513 590 37,000  Level FlightAware ADS-B
Sun 06:06:30 AM 41.3890 146.1900 222° Southwest 512 589 37,000  Level FlightAware ADS-B
Sun 06:07:10 AM 41.3210 146.1030 224° Southwest 514 592 37,000  Level FlightAware ADS-B
Sun 06:07:50 AM 41.2510 146.0150 223° Southwest 515 593 37,000  Level FlightAware ADS-B
Sun 06:08:30 AM 41.1800 145.9270 223° Southwest 516 594 37,000  Level FlightAware ADS-B
Sun 06:09:10 AM 41.1100 145.8400 223° Southwest 515 593 37,000  Level FlightAware ADS-B
Sun 06:10:05 AM 41.0120 145.7190 223° Southwest 524 603 37,000  Level FlightAware ADS-B
Sun 06:10:45 AM 40.9410 145.6310 223° Southwest 525 604 37,000  Level FlightAware ADS-B
Sun 06:13:00 AM 40.7309 145.3697 223° Southwest  Level FlightAware Approximate
Sun 06:13:17 AM 40.6940 145.3280 223° Southwest 530 610 37,000  Level FlightAware ADS-B
Sun 06:14:15 AM 40.5650 145.1720 223° Southwest 534 615 37,000  Level FlightAware ADS-B
Sun 06:14:55 AM 40.5040 145.0970 223° Southwest 534 615 37,000  Level FlightAware ADS-B
Sun 06:15:40 AM 40.4130 144.9740 226° Southwest 537 618 37,000  Level FlightAware ADS-B
Sun 06:16:35 AM 40.3440 144.8330 237° Southwest 528 608 37,000  Level FlightAware ADS-B
Sun 06:17:20 AM 40.2830 144.7030 238° Southwest 526 605 37,000  Level FlightAware ADS-B
Sun 06:18:00 AM 40.2320 144.5950 238° Southwest 522 601 37,000  Level FlightAware ADS-B
Sun 06:18:30 AM 40.1950 144.5140 239° Southwest 522 601 37,000  Level FlightAware ADS-B
Sun 06:19:26 AM 40.1320 144.3830 238° Southwest 521 600 37,000  Level FlightAware ADS-B
Sun 06:21:03 AM 40.0050 144.1140 238° Southwest 517 595 37,000  Level FlightAware ADS-B
Sun 06:21:38 AM 39.9670 144.0360 238° Southwest 517 595 37,000  Level FlightAware ADS-B
Sun 06:22:20 AM 39.9050 143.9070 238° Southwest 491 565 37,000  Level FlightAware ADS-B
Sun 06:22:58 AM 39.8660 143.8250 238° Southwest 489 563 37,000  Level FlightAware ADS-B
Sun 06:23:32 AM 39.8310 143.7530 238° Southwest 489 563 37,000  Level FlightAware ADS-B
Sun 06:24:20 AM 39.7820 143.6510 238° Southwest 489 563 37,000  Level FlightAware ADS-B
Sun 06:24:56 AM 39.7460 143.5740 239° Southwest 489 563 37,000  Level FlightAware ADS-B
Sun 06:25:30 AM 39.7110 143.5020 238° Southwest 489 563 37,000  Level FlightAware ADS-B
Sun 06:26:18 AM 39.6620 143.4000 238° Southwest 489 563 37,000  Level FlightAware ADS-B
Sun 06:26:57 AM 39.5630 143.2010 237° Southwest 510 587 37,000  Level FlightAware ADS-B
Sun 06:27:42 AM 39.5060 143.0860 237° Southwest 509 586 37,000  Level FlightAware ADS-B
Sun 06:28:26 AM 39.4500 142.9710 238° Southwest 509 586 37,000  Level FlightAware ADS-B
Sun 06:29:07 AM 39.3980 142.8680 237° Southwest 508 585 37,000  Level FlightAware ADS-B
Sun 06:29:46 AM 39.3480 142.7660 238° Southwest 507 583 37,000  Level FlightAware ADS-B
Sun 06:30:27 AM 39.2970 142.6640 237° Southwest 506 582 37,000  Level FlightAware ADS-B
Sun 06:31:07 AM 39.2460 142.5630 237° Southwest 508 585 37,000  Level FlightAware ADS-B
Sun 06:31:47 AM 39.1880 142.4670 232° Southwest 506 582 37,000  Level FlightAware ADS-B
Sun 06:32:27 AM 39.1270 142.3760 229° Southwest 502 578 37,000  Level FlightAware ADS-B
Sun 06:33:12 AM 39.0590 142.2730 230° Southwest 501 577 37,000  Level FlightAware ADS-B
Sun 06:33:52 AM 38.9970 142.1800 229° Southwest 500 575 37,000  Level FlightAware ADS-B
Sun 06:34:31 AM 38.9380 142.0920 229° Southwest 497 572 37,000  Level FlightAware ADS-B
Sun 06:35:12 AM 38.8770 142.0010 229° Southwest 499 574 37,000  Level FlightAware ADS-B
Sun 06:35:52 AM 38.8170 141.9130 229° Southwest 498 573 37,000  Level FlightAware ADS-B
Sun 06:36:32 AM 38.7570 141.8230 229° Southwest 497 572 37,000  Level FlightAware ADS-B
Sun 06:37:12 AM 38.6960 141.7330 229° Southwest 498 573 37,000  Level FlightAware ADS-B
Sun 06:37:52 AM 38.6350 141.6440 229° Southwest 497 572 37,000  Level FlightAware ADS-B
Sun 06:38:32 AM 38.5760 141.5560 229° Southwest 496 571 37,000  Level FlightAware ADS-B
Sun 06:39:16 AM 38.5110 141.4550 231° Southwest 484 557 37,000  Level FlightAware ADS-B
Sun 06:39:52 AM 38.4720 141.3680 240° Southwest 474 545 37,000 632 Level FlightAware ADS-B
Sun 06:40:32 AM 38.4400 141.2640 249° West 473 544 37,800 750 Climbing FlightAware ADS-B
Sun 06:41:12 AM 38.4100 141.1580 250° West 473 544 38,000 152 Climbing FlightAware ADS-B
Sun 06:41:51 AM 38.3800 141.0560 249° West 472 543 38,000  Level FlightAware ADS-B
Sun 06:42:32 AM 38.3500 140.9510 250° West 472 543 38,000  Level FlightAware ADS-B
Sun 06:43:12 AM 38.3190 140.8470 249° West 472 543 38,000  Level FlightAware ADS-B
Sun 06:43:57 AM 38.2830 140.7280 249° West 476 548 38,000  Level FlightAware ADS-B
Sun 06:44:38 AM 38.2490 140.6240 247° West 476 548 38,000  Level FlightAware ADS-B
Sun 06:45:22 AM 38.2120 140.5080 248° West 478 550 38,000  Level FlightAware ADS-B
Sun 06:45:58 AM 38.1830 140.4170 248° West 477 549 38,000  Level FlightAware ADS-B
Sun 06:46:38 AM 38.1480 140.3070 248° West 477 549 38,000  Level FlightAware ADS-B
Sun 06:47:18 AM 38.1160 140.2060 248° West 477 549 38,000  Level FlightAware ADS-B
Sun 06:48:04 AM 38.0770 140.0850 248° West 477 549 38,000  Level FlightAware ADS-B
Sun 06:48:44 AM 38.0440 139.9820 248° West 478 550 38,000  Level FlightAware ADS-B
Sun 06:49:28 AM 38.0060 139.8680 247° West 480 552 38,000  Level FlightAware ADS-B
Sun 06:50:07 AM 37.9740 139.7680 248° West 480 552 38,000  Level FlightAware ADS-B
Sun 06:50:52 AM 37.9350 139.6510 247° West 481 554 38,000  Level FlightAware ADS-B
Sun 06:51:35 AM 37.8980 139.5380 247° West 483 556 38,000  Level FlightAware ADS-B
Sun 06:52:15 AM 37.8660 139.4390 248° West 481 554 38,000  Level FlightAware ADS-B
Sun 06:53:00 AM 37.8290 139.3280 247° West 479 551 38,000  Level FlightAware ADS-B
Sun 06:53:40 AM 37.7910 139.2150 247° West 479 551 38,000  Level FlightAware ADS-B
Sun 06:54:20 AM 37.7570 139.1120 247° West 478 550 38,000  Level FlightAware ADS-B
Sun 06:55:01 AM 37.7240 139.0140 247° West 477 549 38,000  Level FlightAware ADS-B
Sun 06:55:32 AM 37.6950 138.9290 247° West 481 554 38,000  Level FlightAware ADS-B
Sun 06:56:13 AM 37.6610 138.8270 247° West 480 552 38,000  Level FlightAware ADS-B
Sun 06:56:52 AM 37.6250 138.7190 247° West 480 552 38,000  Level FlightAware ADS-B
Sun 06:57:32 AM 37.5920 138.6230 247° West 479 551 38,000  Level FlightAware ADS-B
Sun 06:58:32 AM 37.5410 138.4730 247° West 478 550 38,000  Level FlightAware ADS-B
Sun 06:59:07 AM 37.5070 138.3730 247° West 478 550 38,000  Level FlightAware ADS-B
Sun 06:59:52 AM 37.4680 138.2610 246° West 477 549 38,000  Level FlightAware ADS-B
Sun 07:00:32 AM 37.4350 138.1630 247° West 477 549 38,000  Level FlightAware ADS-B
Sun 07:01:17 AM 37.3940 138.0450 246° West 477 549 38,000  Level FlightAware ADS-B
Sun 07:01:57 AM 37.3590 137.9450 246° West 476 548 38,000  Level FlightAware ADS-B
Sun 07:02:42 AM 37.3190 137.8300 246° West 475 547 38,000  Level FlightAware ADS-B
Sun 07:03:22 AM 37.2840 137.7300 246° West 476 548 38,000  Level FlightAware ADS-B
Sun 07:04:07 AM 37.2440 137.6150 246° West 475 547 38,000  Level FlightAware ADS-B
Sun 07:04:47 AM 37.2090 137.5160 246° West 475 547 38,000  Level FlightAware ADS-B
Sun 07:05:22 AM 37.1770 137.4260 246° West 476 548 38,000  Level FlightAware ADS-B
Sun 07:06:03 AM 37.1420 137.3270 246° West 476 548 38,000  Level FlightAware ADS-B
Sun 07:06:47 AM 37.1010 137.2130 246° West 478 550 38,000  Level FlightAware ADS-B
Sun 07:07:22 AM 37.0710 137.1280 246° West 479 551 38,000  Level FlightAware ADS-B
Sun 07:07:57 AM 37.0380 137.0360 246° West 481 554 38,000  Level FlightAware ADS-B
Sun 07:08:37 AM 37.0020 136.9360 246° West 481 554 38,000  Level FlightAware ADS-B
Sun 07:09:22 AM 36.9600 136.8200 246° West 480 552 38,000  Level FlightAware ADS-B
Sun 07:10:02 AM 36.9240 136.7190 246° West 482 555 38,000  Level FlightAware ADS-B
Sun 07:10:47 AM 36.8820 136.6060 245° Southwest 482 555 38,000  Level FlightAware ADS-B
Sun 07:12:20 AM 36.8120 136.4130 246° West 482 555 38,000  Level FlightAware ADS-B
Sun 07:13:24 AM 36.7400 136.2180 245° Southwest 481 554 38,000  Level FlightAware ADS-B
Sun 07:14:07 AM 36.7000 136.1090 245° Southwest 481 554 38,000  Level FlightAware ADS-B
Sun 07:14:47 AM 36.6620 136.0060 245° Southwest 481 554 38,000  Level FlightAware ADS-B
Sun 07:15:32 AM 36.6190 135.8890 245° Southwest 481 554 38,000  Level FlightAware ADS-B
Sun 07:16:17 AM 36.5770 135.7760 245° Southwest 481 554 38,000  Level FlightAware ADS-B
Sun 07:17:02 AM 36.5340 135.6630 245° Southwest 478 550 38,000  Level FlightAware ADS-B
Sun 07:17:42 AM 36.4980 135.5660 245° Southwest 477 549 38,000  Level FlightAware ADS-B
Sun 07:18:22 AM 36.4610 135.4680 245° Southwest 476 548 38,000  Level FlightAware ADS-B
Sun 07:19:02 AM 36.4240 135.3710 245° Southwest 476 548 38,000  Level FlightAware ADS-B
Sun 07:19:47 AM 36.3820 135.2580 245° Southwest 476 548 38,000  Level FlightAware ADS-B
Sun 07:20:37 AM 36.3340 135.1320 245° Southwest 476 548 38,000  Level FlightAware ADS-B
Sun 07:21:17 AM 36.2980 135.0390 244° Southwest 476 548 38,000  Level FlightAware ADS-B
Sun 07:21:52 AM 36.2630 134.9480 245° Southwest 476 548 38,000  Level FlightAware ADS-B
Sun 07:22:52 AM 36.2090 134.8080 244° Southwest 476 548 38,000  Level FlightAware ADS-B
Sun 07:23:35 AM 36.1660 134.6960 245° Southwest 476 548 38,000  Level FlightAware ADS-B
Sun 07:24:20 AM 36.1250 134.5890 245° Southwest 475 547 38,000  Level FlightAware ADS-B
Sun 07:25:10 AM 36.0770 134.4670 244° Southwest 475 547 38,000  Level FlightAware ADS-B
Sun 07:25:50 AM 36.0380 134.3670 244° Southwest 475 547 38,000  Level FlightAware ADS-B
Sun 07:26:35 AM 35.9940 134.2550 244° Southwest 475 547 38,000  Level FlightAware ADS-B
Sun 07:27:10 AM 35.9610 134.1710 244° Southwest 475 547 38,000  Level FlightAware ADS-B
Sun 07:27:50 AM 35.9260 134.0820 244° Southwest 476 548 38,000  Level FlightAware ADS-B
Sun 07:28:35 AM 35.8800 133.9640 244° Southwest 477 549 38,000  Level FlightAware ADS-B
Sun 07:29:10 AM 35.8460 133.8780 244° Southwest 477 549 38,000  Level FlightAware ADS-B
Sun 07:29:50 AM 35.8110 133.7900 244° Southwest 477 549 38,000  Level FlightAware ADS-B
Sun 07:30:25 AM 35.7730 133.6960 244° Southwest 477 549 38,000  Level FlightAware ADS-B
Sun 07:31:05 AM 35.7360 133.6010 244° Southwest 478 550 38,000  Level FlightAware ADS-B
Sun 07:31:50 AM 35.6910 133.4890 244° Southwest 476 548 38,000  Level FlightAware ADS-B
Sun 07:32:25 AM 35.6570 133.4050 244° Southwest 474 545 38,000  Level FlightAware ADS-B
Sun 07:33:09 AM 35.6140 133.2980 244° Southwest 474 545 38,000  Level FlightAware ADS-B
Sun 07:34:05 AM 35.5600 133.1640 244° Southwest 474 545 38,000  Level FlightAware ADS-B
Sun 07:34:45 AM 35.5160 133.0710 240° Southwest 470 541 38,000  Level FlightAware ADS-B
Sun 07:35:25 AM 35.4630 132.9840 233° Southwest 474 545 38,000  Level FlightAware ADS-B
Sun 07:36:24 AM 35.3830 132.8580 232° Southwest 474 545 38,000  Level FlightAware ADS-B
Sun 07:37:09 AM 35.3220 132.7620 232° Southwest 474 545 38,000  Level FlightAware ADS-B
Sun 07:37:54 AM 35.2650 132.6720 232° Southwest 474 545 38,000  Level FlightAware ADS-B
Sun 07:38:34 AM 35.2100 132.5840 233° Southwest 474 545 38,000  Level FlightAware ADS-B
Sun 07:39:19 AM 35.1490 132.4880 232° Southwest 473 544 38,000  Level FlightAware ADS-B
Sun 07:39:59 AM 35.0980 132.4090 232° Southwest 474 545 38,000  Level FlightAware ADS-B
Sun 07:40:44 AM 35.0350 132.3100 232° Southwest 472 543 38,000  Level FlightAware ADS-B
Sun 07:41:24 AM 34.9820 132.2270 232° Southwest 474 545 38,000  Level FlightAware ADS-B
Sun 07:42:04 AM 34.9270 132.1420 232° Southwest 474 545 38,000  Level FlightAware ADS-B
Sun 07:42:49 AM 34.8650 132.0470 232° Southwest 475 547 38,000  Level FlightAware ADS-B
Sun 07:43:24 AM 34.8220 131.9790 232° Southwest 475 547 38,000  Level FlightAware ADS-B
Sun 07:44:04 AM 34.7630 131.8890 231° Southwest 477 549 38,000  Level FlightAware ADS-B
Sun 07:44:54 AM 34.6950 131.7840 232° Southwest 477 549 38,000  Level FlightAware ADS-B
Sun 07:45:39 AM 34.6330 131.6890 232° Southwest 478 550 38,000  Level FlightAware ADS-B
Sun 07:46:24 AM 34.5710 131.5940 232° Southwest 478 550 38,000  Level FlightAware ADS-B
Sun 07:47:04 AM 34.5160 131.5100 232° Southwest 477 549 38,000  Level FlightAware ADS-B
Sun 07:47:44 AM 34.4620 131.4270 232° Southwest 472 543 38,000  Level FlightAware ADS-B
Sun 07:48:20 AM 34.4150 131.3560 231° Southwest 472 543 38,000  Level FlightAware ADS-B
Sun 07:49:19 AM 34.3390 131.2400 232° Southwest 473 544 38,000  Level FlightAware ADS-B
Sun 07:49:54 AM 34.2840 131.1560 232° Southwest 474 545 38,000  Level FlightAware ADS-B
Sun 07:50:39 AM 34.2210 131.0610 231° Southwest 473 544 38,000  Level FlightAware ADS-B
Sun 07:51:19 AM 34.1620 130.9820 228° Southwest 473 544 38,000  Level FlightAware ADS-B
Sun 07:52:04 AM 34.0930 130.8950 226° Southwest 480 552 38,000  Level FlightAware ADS-B
Sun 07:52:34 AM 34.0460 130.8380 225° Southwest 478 550 38,000  Level FlightAware ADS-B
Sun 07:53:20 AM 33.9760 130.7530 225° Southwest 479 551 38,000  Level FlightAware ADS-B
Sun 07:53:59 AM 33.9140 130.6770 226° Southwest 479 551 38,000  Level FlightAware ADS-B
Sun 07:54:39 AM 33.8520 130.6020 225° Southwest 478 550 38,000  Level FlightAware ADS-B
Sun 07:55:14 AM 33.7970 130.5350 225° Southwest 479 551 38,000  Level FlightAware ADS-B
Sun 07:56:22 AM 33.6970 130.4140 225° Southwest 481 554 38,000  Level FlightAware ADS-B
Sun 07:56:58 AM 33.6420 130.3350 230° Southwest 480 552 38,000  Level FlightAware ADS-B
Sun 07:57:38 AM 33.6000 130.2450 241° Southwest 476 548 38,000  Level FlightAware ADS-B
Sun 07:58:18 AM 33.5620 130.1470 245° Southwest 477 549 38,000  Level FlightAware ADS-B
Sun 07:59:02 AM 33.5190 130.0390 244° Southwest 483 556 38,000  Level FlightAware ADS-B
Sun 07:59:36 AM 33.4850 129.9550 244° Southwest 484 557 38,000  Level FlightAware ADS-B
Sun 08:00:24 AM 33.4510 129.8700 244° Southwest 484 557 38,000  Level FlightAware ADS-B
Sun 08:01:07 AM 33.3980 129.7370 245° Southwest 487 560 38,000  Level FlightAware ADS-B
Sun 08:01:51 AM 33.3550 129.6280 245° Southwest 488 562 38,000  Level FlightAware ADS-B
Sun 08:02:32 AM 33.3160 129.5310 244° Southwest 488 562 38,000  Level FlightAware ADS-B
Sun 08:03:11 AM 33.2790 129.4320 246° West 486 559 38,000  Level FlightAware ADS-B
Sun 08:03:58 AM 33.2460 129.3180 251° West 489 563 38,000  Level FlightAware ADS-B
Sun 08:04:51 AM 33.2040 129.1790 250° West 487 560 38,000 -65 Level FlightAware ADS-B
Sun 08:05:31 AM 33.1730 129.0820 249° West 486 559 37,900 -767 Descending FlightAware ADS-B
Sun 08:06:17 AM 33.1350 128.9630 249° West 488 562 36,900 -1,320 Descending FlightAware ADS-B
Sun 08:07:11 AM 33.0910 128.8260 249° West 488 562 35,700 -1,320 Descending FlightAware ADS-B
Sun 08:07:57 AM 33.0540 128.7100 249° West 488 562 34,700 -1,333 Descending FlightAware ADS-B
Sun 08:08:32 AM 33.0260 128.6220 249° West 488 562 33,900 -1,340 Descending FlightAware ADS-B
Sun 08:09:31 AM 32.9790 128.4710 250° West 488 562 32,600 -1,273 Descending FlightAware ADS-B
Sun 08:10:11 AM 32.9480 128.3700 250° West 486 559 31,800 -1,200 Descending FlightAware ADS-B
Sun 08:10:51 AM 32.9160 128.2690 249° West 482 555 31,000 -597 Descending FlightAware ADS-B
Sun 08:13:00 AM 32.8389 127.9538 254° West  Level Estimated
Sun 08:13:12 AM 32.8150 127.9490 254° West 473 544 30,000  Level FlightAware ADS-B
Sun 08:13:54 AM 32.7790 127.8340 250° West 472 543 30,000  Level FlightAware ADS-B
Sun 08:14:31 AM 32.7450 127.7290 249° West 471 542 30,000  Level FlightAware ADS-B
Sun 08:15:16 AM 32.7100 127.6190 249° West 473 544 30,000  Level FlightAware ADS-B
Sun 08:16:02 AM 32.6750 127.5100 249° West 474 545 30,000  Level FlightAware ADS-B
Sun 08:16:46 AM 32.6390 127.3990 249° West 475 547 30,000  Level FlightAware ADS-B
Sun 08:17:26 AM 32.6070 127.3020 249° West 477 549 30,000  Level FlightAware ADS-B
Sun 08:18:06 AM 32.5750 127.2020 249° West 478 550 30,000  Level FlightAware ADS-B
Sun 08:18:51 AM 32.5400 127.0950 249° West 479 551 30,000  Level FlightAware ADS-B
Sun 08:19:22 AM 32.5200 127.0330 249° West 479 551 30,000  Level FlightAware ADS-B
Sun 08:19:58 AM 32.4960 126.9580 249° West 479 551 30,000  Level FlightAware ADS-B
Sun 08:21:01 AM 32.4530 126.8270 249° West 479 551 30,000  Level FlightAware ADS-B
Sun 08:21:37 AM 32.4290 126.7520 249° West 479 551 30,000  Level FlightAware ADS-B
Sun 08:22:13 AM 32.4050 126.6770 249° West 479 551 30,000  Level FlightAware ADS-B
Sun 08:22:49 AM 32.3800 126.6020 248° West 479 551 30,000  Level FlightAware ADS-B
Sun 08:23:38 AM 32.3470 126.5000 249° West 479 551 30,000  Level FlightAware ADS-B
Sun 08:24:15 AM 32.3220 126.4230 249° West 479 551 30,000  Level FlightAware ADS-B
Sun 08:24:51 AM 32.2980 126.3480 249° West 479 551 30,000  Level FlightAware ADS-B
Sun 08:25:39 AM 32.2660 126.2480 249° West 479 551 30,000  Level FlightAware ADS-B
Sun 08:26:16 AM 32.2410 126.1710 249° West 479 551 30,000  Level FlightAware ADS-B
Sun 08:27:04 AM 32.2080 126.0720 249° West 479 551 30,000  Level FlightAware ADS-B
Sun 08:27:40 AM 32.1840 125.9970 249° West 479 551 30,000  Level FlightAware ADS-B
Sun 08:28:28 AM 32.1510 125.8970 249° West 479 551 30,000  Level FlightAware ADS-B
Sun 08:31:00 AM 32.0231 125.5445 247° West  Level FlightAware Approximate
Sun 08:32:00 AM 31.9723 125.4057 247° West  Level FlightAware Approximate
Sun 08:33:00 AM 31.9214 125.2670 247° West  Level FlightAware Approximate
Sun 08:34:00 AM 31.8704 125.1284 247° West  Level FlightAware Approximate
Sun 08:35:00 AM 31.8404 124.9816 257° West  Level Estimated
Sun 08:36:00 AM 31.8056 124.8364 254° West  Level FlightAware Approximate
Sun 08:37:00 AM 31.7707 124.6912 254° West  Level FlightAware Approximate
Sun 08:38:00 AM 31.7356 124.5462 254° West  Level FlightAware Approximate
Sun 08:39:00 AM 31.7057 124.3996 249° West  Level Estimated
Sun 08:40:00 AM 31.6662 124.2479 254° West  Level FlightAware Approximate
Sun 08:41:00 AM 31.6301 124.1034 254° West  Level FlightAware Approximate
Sun 08:42:00 AM 31.5964 123.9583 261° West  Level FlightAware Approximate
Sun 08:43:00 AM 31.5695 123.8113 254° West  Level FlightAware Approximate
Sun 08:44:00 AM 31.5353 123.6663 255° West  Level FlightAware Approximate
Sun 08:45:00 AM 31.5011 123.5213 255° West  Level FlightAware Approximate
Sun 08:46:00 AM 31.4750 123.3745 257° West  Level FlightAware Approximate
Sun 08:47:00 AM 31.4454 123.2283 256° West  Level FlightAware Approximate
Sun 08:48:00 AM 31.4142 123.0825 256° West  Level FlightAware Approximate
Sun 08:49:00 AM 31.3840 122.9365 257° West  Level FlightAware Approximate
Sun 08:50:00 AM 31.3547 122.7903 257° West  Level FlightAware Approximate
Sun 08:51:00 AM 31.3320 122.6425 258° West  Level FlightAware Approximate
Sun 08:52:00 AM 31.3053 122.4957 258° West  Level FlightAware Approximate
Sun 08:53:00 AM 31.2766 122.3495 257° West  Level FlightAware Approximate
Sun 08:54:00 AM 31.2458 122.2040 249° West  Level FlightAware Approximate
Sun 08:55:00 AM 31.2197 122.0579 262° West  Level FlightAware Approximate
Sun 08:56:00 AM 31.1804 121.9159 259° West  Level FlightAware Approximate
Sun 08:57:00 AM 31.1428 121.7924 270° West  Level Estimated
Sun 08:58:00 AM 31.1428 121.7924 157° South  Level Estimated
Sun 08:59:00 AM 31.1428 121.7924 157° South  Level Estimated
Sun 09:00:00 AM 31.1428 121.7924 157° South  Level Estimated
Sun 09:01:00 AM 31.1428 121.7924 157° South  Level Estimated
Sun 09:02:00 AM 31.1428 121.7924 157° South  Level Estimated
Sun 09:03:00 AM 31.1428 121.7924 157° South  Level Estimated
Sun 09:04:00 AM 31.1428 121.7924 157° South  Level Estimated
Sun 09:05:00 AM 31.1428 121.7924 157° South  Level Estimated
Sun 09:06:00 AM 31.1428 121.7924 157° South  Level Estimated
Sun 09:07:00 AM 31.1428 121.7924 157° South  Level Estimated
Sun 09:08:00 AM 31.1428 121.7924 157° South  Level Estimated
Sun 09:09:00 AM 31.1428 121.7924 157° South  Level Estimated
Sun 09:10:00 AM 31.1428 121.7924 157° South  Level Estimated
Sun 09:11:00 AM 31.1428 121.7924 157° South  Level Estimated
Sun 09:12:00 AM 31.1428 121.7924 157° South  Level Estimated
Sun 09:13:00 AM 31.1428 121.7924 157° South  Level Estimated
Sun 09:14:00 AM 31.1428 121.7924 157° South  Level Estimated
Sun 09:15:00 AM 31.1428 121.7924 157° South  Level Estimated

Login

Don't have an account? Register now (free) for customized features, flight alerts, and more!